Time,TemperatureF,DewpointF,PressureIn,WindDirection,WindDirectionDegrees,WindSpeedMPH,WindSpeedGustMPH,Humidity,HourlyPrecipIn,Conditions,Clouds,dailyrainin,SoftwareType,DateUTC
2013-09-06 00:01:00,44.0,35.2,30.28,NW,315,0.0,0.0,71,0.00,,---,0.19,VWS V14.01,2013-09-06 04:01:00,
2013-09-06 00:06:00,43.8,35.4,30.28,NW,315,0.0,0.0,72,0.00,,---,0.00,VWS V14.01,2013-09-06 04:06:00,
2013-09-06 00:11:00,43.7,35.3,30.28,NW,315,0.0,0.0,72,0.00,,---,0.00,VWS V14.01,2013-09-06 04:11:00,
2013-09-06 00:16:00,43.7,35.3,30.27,NW,315,0.0,0.0,72,0.00,,---,0.00,VWS V14.01,2013-09-06 04:16:00,
2013-09-06 00:21:00,43.5,35.1,30.28,NW,315,0.0,0.0,72,0.00,,---,0.00,VWS V14.01,2013-09-06 04:21:00,
2013-09-06 00:26:00,43.5,35.1,30.28,NW,315,0.0,0.0,72,0.00,,---,0.00,VWS V14.01,2013-09-06 04:26:00,
2013-09-06 00:31:00,43.3,34.9,30.28,NW,315,0.0,0.0,72,0.00,,---,0.00,VWS V14.01,2013-09-06 04:31:00,
2013-09-06 00:36:00,43.1,34.7,30.28,NW,315,0.0,0.0,72,0.00,,---,0.00,VWS V14.01,2013-09-06 04:36:00,
2013-09-06 00:41:00,42.9,34.5,30.28,NW,315,0.0,0.0,72,0.00,,---,0.00,VWS V14.01,2013-09-06 04:41:00,
2013-09-06 00:46:00,42.8,34.4,30.28,NW,315,0.0,0.0,72,0.00,,---,0.00,VWS V14.01,2013-09-06 04:46:00,
2013-09-06 00:51:00,42.6,34.6,30.28,NW,315,0.0,0.0,73,0.00,,---,0.00,VWS V14.01,2013-09-06 04:51:00,
2013-09-06 00:56:00,42.6,34.6,30.27,NW,315,0.0,0.0,73,0.00,,---,0.00,VWS V14.01,2013-09-06 04:56:00,
2013-09-06 01:01:00,42.4,34.4,30.28,NW,315,0.0,0.0,73,0.00,,---,0.19,VWS V14.01,2013-09-06 05:01:00,
2013-09-06 01:06:00,42.4,34.4,30.28,NW,315,0.0,0.0,73,0.00,,---,0.00,VWS V14.01,2013-09-06 05:06:00,
2013-09-06 01:11:00,42.4,34.4,30.28,NW,315,0.0,0.0,73,0.00,,---,0.00,VWS V14.01,2013-09-06 05:11:00,
2013-09-06 01:16:00,42.0,34.3,30.28,NW,315,0.0,0.0,74,0.00,,---,0.00,VWS V14.01,2013-09-06 05:16:00,
2013-09-06 01:21:00,42.0,34.0,30.28,NW,315,0.0,0.0,73,0.00,,---,0.00,VWS V14.01,2013-09-06 05:21:00,
2013-09-06 01:26:00,41.9,34.2,30.28,NW,315,0.0,0.0,74,0.00,,---,0.00,VWS V14.01,2013-09-06 05:26:00,
2013-09-06 01:31:00,41.9,34.2,30.28,NW,315,0.0,0.0,74,0.00,,---,0.00,VWS V14.01,2013-09-06 05:31:00,
2013-09-06 01:36:00,41.7,34.0,30.28,NW,315,0.0,0.0,74,0.00,,---,0.00,VWS V14.01,2013-09-06 05:36:00,
2013-09-06 01:41:00,41.7,34.0,30.28,NW,315,0.0,0.0,74,0.00,,---,0.00,VWS V14.01,2013-09-06 05:41:00,
2013-09-06 01:46:00,41.5,33.8,30.28,NW,315,0.0,0.0,74,0.00,,---,0.00,VWS V14.01,2013-09-06 05:46:00,
2013-09-06 01:51:00,41.5,33.8,30.28,NW,315,0.0,0.0,74,0.00,,---,0.00,VWS V14.01,2013-09-06 05:51:00,
2013-09-06 01:56:00,41.5,34.2,30.28,NW,315,0.0,0.0,75,0.00,,---,0.00,VWS V14.01,2013-09-06 05:56:00,
2013-09-06 02:01:00,41.3,34.0,30.28,NW,315,0.0,0.0,75,0.00,,---,0.19,VWS V14.01,2013-09-06 06:01:00,
2013-09-06 02:06:00,41.3,34.0,30.28,NW,315,0.0,0.0,75,0.00,,---,0.00,VWS V14.01,2013-09-06 06:06:00,
2013-09-06 02:11:00,41.1,33.8,30.28,NW,315,0.0,0.0,75,0.00,,---,0.00,VWS V14.01,2013-09-06 06:11:00,
2013-09-06 02:16:00,41.1,33.8,30.29,NW,315,0.0,0.0,75,0.00,,---,0.00,VWS V14.01,2013-09-06 06:16:00,
2013-09-06 02:21:00,41.1,33.8,30.28,NW,315,0.0,0.0,75,0.00,,---,0.00,VWS V14.01,2013-09-06 06:21:00,
2013-09-06 02:26:00,41.1,33.8,30.29,NW,315,0.0,0.0,75,0.00,,---,0.00,VWS V14.01,2013-09-06 06:26:00,
2013-09-06 02:31:00,41.0,34.0,30.29,NW,315,0.0,0.0,76,0.00,,---,0.00,VWS V14.01,2013-09-06 06:31:00,
2013-09-06 02:36:00,41.0,34.0,30.29,NW,315,0.0,0.0,76,0.00,,---,0.00,VWS V14.01,2013-09-06 06:36:00,
2013-09-06 02:41:00,40.8,33.8,30.29,NW,315,0.0,0.0,76,0.00,,---,0.00,VWS V14.01,2013-09-06 06:41:00,
2013-09-06 02:46:00,40.8,33.8,30.29,NW,315,0.0,0.0,76,0.00,,---,0.00,VWS V14.01,2013-09-06 06:46:00,
2013-09-06 02:51:00,40.8,33.8,30.29,NW,315,0.0,0.0,76,0.00,,---,0.00,VWS V14.01,2013-09-06 06:51:00,
2013-09-06 02:56:00,40.8,33.8,30.30,NW,315,0.0,0.0,76,0.00,,---,0.00,VWS V14.01,2013-09-06 06:56:00,
2013-09-06 03:01:00,40.6,33.6,30.30,NW,315,0.0,0.0,76,0.00,,---,0.19,VWS V14.01,2013-09-06 07:01:00,
2013-09-06 03:06:00,40.4,33.5,30.29,NW,315,0.0,0.0,76,0.00,,---,0.00,VWS V14.01,2013-09-06 07:06:00,
2013-09-06 03:11:00,40.2,33.2,30.29,NW,315,0.0,0.0,76,0.00,,---,0.00,VWS V14.01,2013-09-06 07:11:00,
2013-09-06 03:16:00,40.2,33.2,30.29,NW,315,0.0,0.0,76,0.00,,---,0.00,VWS V14.01,2013-09-06 07:16:00,
2013-09-06 03:21:00,40.1,33.2,30.29,NW,315,0.0,0.0,76,0.00,,---,0.00,VWS V14.01,2013-09-06 07:21:00,
2013-09-06 03:26:00,40.1,33.2,30.29,NW,315,0.0,0.0,76,0.00,,---,0.00,VWS V14.01,2013-09-06 07:26:00,
2013-09-06 03:31:00,39.9,33.0,30.30,NW,315,0.0,0.0,76,0.00,,---,0.00,VWS V14.01,2013-09-06 07:31:00,
2013-09-06 03:36:00,39.9,33.0,30.29,NW,315,0.0,0.0,76,0.00,,---,0.00,VWS V14.01,2013-09-06 07:36:00,
2013-09-06 03:41:00,39.9,33.0,30.29,NW,315,0.0,0.0,76,0.00,,---,0.00,VWS V14.01,2013-09-06 07:41:00,
2013-09-06 03:46:00,39.9,33.0,30.29,NW,315,0.0,0.0,76,0.00,,---,0.00,VWS V14.01,2013-09-06 07:46:00,
2013-09-06 03:51:00,39.9,33.0,30.29,NNW,338,0.0,0.0,76,0.00,,---,0.00,VWS V14.01,2013-09-06 07:51:00,
2013-09-06 03:56:00,39.7,32.8,30.30,NNW,338,0.0,0.0,76,0.00,,---,0.00,VWS V14.01,2013-09-06 07:56:00,
2013-09-06 04:01:00,39.7,33.1,30.30,ENE,68,0.0,0.0,77,0.00,,---,0.19,VWS V14.01,2013-09-06 08:01:00,
2013-09-06 04:06:00,39.5,32.9,30.30,ENE,68,0.0,0.0,77,0.00,,---,0.00,VWS V14.01,2013-09-06 08:06:00,
2013-09-06 04:11:00,39.7,33.1,30.30,ENE,68,0.0,0.0,77,0.00,,---,0.00,VWS V14.01,2013-09-06 08:11:00,
2013-09-06 04:16:00,39.7,33.1,30.30,ENE,68,0.0,0.0,77,0.00,,---,0.00,VWS V14.01,2013-09-06 08:16:00,
2013-09-06 04:21:00,39.7,33.1,30.30,ENE,68,0.0,0.0,77,0.00,,---,0.00,VWS V14.01,2013-09-06 08:21:00,
2013-09-06 04:26:00,39.7,33.4,30.30,ENE,68,0.0,0.0,78,0.00,,---,0.00,VWS V14.01,2013-09-06 08:26:00,
2013-09-06 04:31:00,39.7,33.4,30.30,NE,45,0.0,0.0,78,0.00,,---,0.00,VWS V14.01,2013-09-06 08:31:00,
2013-09-06 04:36:00,39.7,33.4,30.30,NE,45,0.0,0.0,78,0.00,,---,0.00,VWS V14.01,2013-09-06 08:36:00,
2013-09-06 04:41:00,39.7,33.4,30.30,NE,45,0.0,0.0,78,0.00,,---,0.00,VWS V14.01,2013-09-06 08:41:00,
2013-09-06 04:46:00,39.7,33.4,30.30,NE,45,0.0,0.0,78,0.00,,---,0.00,VWS V14.01,2013-09-06 08:46:00,
2013-09-06 04:51:00,39.7,33.4,30.30,NE,45,0.0,0.0,78,0.00,,---,0.00,VWS V14.01,2013-09-06 08:51:00,
2013-09-06 04:56:00,39.7,33.4,30.30,NNE,22,0.0,0.0,78,0.00,,---,0.00,VWS V14.01,2013-09-06 08:56:00,
2013-09-06 05:01:00,39.7,33.4,30.30,NNE,22,0.0,0.0,78,0.00,,---,0.19,VWS V14.01,2013-09-06 09:01:00,
2013-09-06 05:06:00,39.9,33.9,30.30,SSE,158,0.0,0.0,79,0.00,,---,0.00,VWS V14.01,2013-09-06 09:06:00,
2013-09-06 05:11:00,39.7,33.7,30.30,SSE,158,0.0,0.0,79,0.00,,---,0.00,VWS V14.01,2013-09-06 09:11:00,
2013-09-06 05:16:00,39.7,33.7,30.30,SSE,158,0.0,0.0,79,0.00,,---,0.00,VWS V14.01,2013-09-06 09:16:00,
2013-09-06 05:21:00,39.7,33.7,30.31,SSE,158,0.0,0.0,79,0.00,,---,0.00,VWS V14.01,2013-09-06 09:21:00,
2013-09-06 05:26:00,39.7,33.7,30.30,SSE,158,0.0,0.0,79,0.00,,---,0.00,VWS V14.01,2013-09-06 09:26:00,
2013-09-06 05:31:00,39.5,33.5,30.31,SSE,158,0.0,0.0,79,0.00,,---,0.00,VWS V14.01,2013-09-06 09:31:00,
2013-09-06 05:36:00,39.3,33.3,30.31,SE,135,0.0,0.0,79,0.00,,---,0.00,VWS V14.01,2013-09-06 09:36:00,
2013-09-06 05:41:00,39.3,33.3,30.31,SE,135,0.0,0.0,79,0.00,,---,0.00,VWS V14.01,2013-09-06 09:41:00,
2013-09-06 05:46:00,39.3,33.3,30.31,SE,135,0.0,0.0,79,0.00,,---,0.00,VWS V14.01,2013-09-06 09:46:00,
2013-09-06 05:51:00,39.3,33.3,30.31,SE,135,0.0,0.0,79,0.00,,---,0.00,VWS V14.01,2013-09-06 09:51:00,
2013-09-06 05:56:00,39.3,33.3,30.31,SE,135,0.0,0.0,79,0.00,,---,0.00,VWS V14.01,2013-09-06 09:56:00,
2013-09-06 06:01:00,39.3,33.3,30.31,SE,135,0.0,0.0,79,0.00,,---,0.19,VWS V14.01,2013-09-06 10:01:00,
2013-09-06 06:06:00,39.3,33.3,30.31,SE,135,0.0,0.0,79,0.00,,---,0.00,VWS V14.01,2013-09-06 10:06:00,
2013-09-06 06:11:00,39.3,33.3,30.32,SE,135,0.0,0.0,79,0.00,,---,0.00,VWS V14.01,2013-09-06 10:11:00,
2013-09-06 06:16:00,39.3,33.3,30.32,SE,135,0.0,0.0,79,0.00,,---,0.00,VWS V14.01,2013-09-06 10:16:00,
2013-09-06 06:21:00,39.3,33.3,30.33,SE,135,0.0,0.0,79,0.00,,---,0.00,VWS V14.01,2013-09-06 10:21:00,
2013-09-06 06:26:00,39.3,33.3,30.33,SE,135,0.0,0.0,79,0.00,,---,0.00,VWS V14.01,2013-09-06 10:26:00,
2013-09-06 06:31:00,39.3,33.3,30.32,SE,135,0.0,0.0,79,0.00,,---,0.00,VWS V14.01,2013-09-06 10:31:00,
2013-09-06 06:36:00,39.2,33.2,30.33,SE,135,0.0,0.0,79,0.00,,---,0.00,VWS V14.01,2013-09-06 10:36:00,
2013-09-06 06:41:00,39.3,33.3,30.33,SE,135,0.0,0.0,79,0.00,,---,0.00,VWS V14.01,2013-09-06 10:41:00,
2013-09-06 06:46:00,39.3,33.3,30.33,SE,135,0.0,0.0,79,0.00,,---,0.00,VWS V14.01,2013-09-06 10:46:00,
2013-09-06 06:51:00,39.2,33.2,30.33,East,90,0.0,0.0,79,0.00,,---,0.00,VWS V14.01,2013-09-06 10:51:00,
2013-09-06 06:56:00,39.0,33.0,30.33,East,90,0.0,0.0,79,0.00,,---,0.00,VWS V14.01,2013-09-06 10:56:00,
2013-09-06 07:01:00,39.0,33.4,30.33,East,90,0.0,0.0,80,0.00,,---,0.19,VWS V14.01,2013-09-06 11:01:00,
2013-09-06 07:06:00,39.0,33.4,30.32,East,90,0.0,0.0,80,0.00,,---,0.00,VWS V14.01,2013-09-06 11:06:00,
2013-09-06 07:11:00,39.0,33.4,30.33,East,90,0.0,0.0,80,0.00,,---,0.00,VWS V14.01,2013-09-06 11:11:00,
2013-09-06 07:16:00,39.0,33.4,30.33,East,90,0.0,0.0,80,0.00,,---,0.00,VWS V14.01,2013-09-06 11:16:00,
2013-09-06 07:21:00,39.0,33.4,30.33,East,90,0.0,0.0,80,0.00,,---,0.00,VWS V14.01,2013-09-06 11:21:00,
2013-09-06 07:26:00,39.0,33.4,30.33,East,90,0.0,0.0,80,0.00,,---,0.00,VWS V14.01,2013-09-06 11:26:00,
2013-09-06 07:31:00,39.0,33.4,30.33,East,90,0.0,0.0,80,0.00,,---,0.00,VWS V14.01,2013-09-06 11:31:00,
2013-09-06 07:36:00,38.8,33.2,30.33,East,90,0.0,0.0,80,0.00,,---,0.00,VWS V14.01,2013-09-06 11:36:00,
2013-09-06 07:41:00,38.8,33.2,30.33,East,90,0.0,0.0,80,0.00,,---,0.00,VWS V14.01,2013-09-06 11:41:00,
2013-09-06 07:46:00,38.8,33.2,30.34,East,90,0.0,0.0,80,0.00,,---,0.00,VWS V14.01,2013-09-06 11:46:00,
2013-09-06 07:51:00,38.8,33.2,30.34,East,90,0.0,0.0,80,0.00,,---,0.00,VWS V14.01,2013-09-06 11:51:00,
2013-09-06 07:56:00,38.8,33.2,30.34,East,90,0.0,0.0,80,0.00,,---,0.00,VWS V14.01,2013-09-06 11:56:00,
2013-09-06 08:01:00,38.8,33.2,30.34,East,90,0.0,0.0,80,0.00,,---,0.19,VWS V14.01,2013-09-06 12:01:00,
2013-09-06 08:06:00,38.8,33.2,30.34,East,90,0.0,0.0,80,0.00,,---,0.00,VWS V14.01,2013-09-06 12:06:00,
2013-09-06 08:11:00,38.8,33.2,30.34,East,90,0.0,0.0,80,0.00,,---,0.00,VWS V14.01,2013-09-06 12:11:00,
2013-09-06 08:16:00,39.0,33.7,30.34,NE,45,0.0,0.0,81,0.00,,---,0.00,VWS V14.01,2013-09-06 12:16:00,
2013-09-06 08:21:00,39.0,33.7,30.34,North,0,0.0,0.0,81,0.00,,---,0.00,VWS V14.01,2013-09-06 12:21:00,
2013-09-06 08:26:00,39.3,34.0,30.34,North,0,0.0,0.0,81,0.00,,---,0.00,VWS V14.01,2013-09-06 12:26:00,
2013-09-06 08:31:00,39.3,34.3,30.34,NNW,338,0.0,0.0,82,0.00,,---,0.00,VWS V14.01,2013-09-06 12:31:00,
2013-09-06 08:36:00,39.7,34.7,30.34,NNW,338,0.0,0.0,82,0.00,,---,0.00,VWS V14.01,2013-09-06 12:36:00,
2013-09-06 08:41:00,39.9,34.9,30.34,NNW,338,0.0,0.0,82,0.00,,---,0.00,VWS V14.01,2013-09-06 12:41:00,
2013-09-06 08:46:00,40.1,35.1,30.34,NNW,338,0.0,0.0,82,0.00,,---,0.00,VWS V14.01,2013-09-06 12:46:00,
2013-09-06 08:51:00,40.4,35.7,30.34,NW,315,0.0,0.0,83,0.00,,---,0.00,VWS V14.01,2013-09-06 12:51:00,
2013-09-06 08:56:00,40.6,35.8,30.34,NW,315,0.0,0.0,83,0.00,,---,0.00,VWS V14.01,2013-09-06 12:56:00,
2013-09-06 09:01:00,41.0,36.2,30.34,NW,315,0.0,0.0,83,0.00,,---,0.19,VWS V14.01,2013-09-06 13:01:00,
2013-09-06 09:06:00,41.1,36.3,30.34,NW,315,0.0,0.0,83,0.00,,---,0.00,VWS V14.01,2013-09-06 13:06:00,
2013-09-06 09:11:00,41.5,36.7,30.34,NW,315,0.0,0.0,83,0.00,,---,0.00,VWS V14.01,2013-09-06 13:11:00,
2013-09-06 09:16:00,41.7,36.9,30.34,NW,315,0.0,0.0,83,0.00,,---,0.00,VWS V14.01,2013-09-06 13:16:00,
2013-09-06 09:21:00,42.0,37.2,30.34,NW,315,0.0,0.0,83,0.00,,---,0.00,VWS V14.01,2013-09-06 13:21:00,
2013-09-06 09:26:00,42.4,37.6,30.34,NW,315,0.0,0.0,83,0.00,,---,0.00,VWS V14.01,2013-09-06 13:26:00,
2013-09-06 09:31:00,42.8,38.0,30.34,NW,315,0.0,0.0,83,0.00,,---,0.00,VWS V14.01,2013-09-06 13:31:00,
2013-09-06 09:36:00,43.3,38.2,30.34,NW,315,0.0,0.0,82,0.00,,---,0.00,VWS V14.01,2013-09-06 13:36:00,
2013-09-06 09:41:00,43.5,38.4,30.34,NW,315,0.0,0.0,82,0.00,,---,0.00,VWS V14.01,2013-09-06 13:41:00,
2013-09-06 09:46:00,43.8,38.7,30.34,NW,315,0.0,0.0,82,0.00,,---,0.00,VWS V14.01,2013-09-06 13:46:00,
2013-09-06 09:51:00,44.4,39.3,30.34,NW,315,0.0,0.0,82,0.00,,---,0.00,VWS V14.01,2013-09-06 13:51:00,
2013-09-06 09:56:00,44.9,39.8,30.34,WNW,292,0.0,0.0,82,0.00,,---,0.00,VWS V14.01,2013-09-06 13:56:00,
2013-09-06 10:01:00,45.5,40.0,30.34,WNW,292,0.0,0.0,81,0.00,,---,0.19,VWS V14.01,2013-09-06 14:01:00,
2013-09-06 10:06:00,46.2,40.7,30.34,NW,315,0.0,0.0,81,0.00,,---,0.00,VWS V14.01,2013-09-06 14:06:00,
2013-09-06 10:11:00,46.7,40.9,30.34,NW,315,0.0,0.0,80,0.00,,---,0.00,VWS V14.01,2013-09-06 14:11:00,
2013-09-06 10:16:00,47.3,41.5,30.33,NW,315,0.0,0.0,80,0.00,,---,0.00,VWS V14.01,2013-09-06 14:16:00,
2013-09-06 10:21:00,48.2,42.0,30.33,NW,315,0.0,0.0,79,0.00,,---,0.00,VWS V14.01,2013-09-06 14:21:00,
2013-09-06 10:26:00,48.9,42.3,30.33,NNE,22,0.0,0.0,78,0.00,,---,0.00,VWS V14.01,2013-09-06 14:26:00,
2013-09-06 10:31:00,49.6,43.0,30.32,NE,45,0.0,0.0,78,0.00,,---,0.00,VWS V14.01,2013-09-06 14:31:00,
2013-09-06 10:36:00,50.5,43.6,30.32,SE,135,0.0,0.0,77,0.00,,---,0.00,VWS V14.01,2013-09-06 14:36:00,
2013-09-06 10:41:00,51.2,43.6,30.32,NW,315,0.0,0.0,75,0.00,,---,0.00,VWS V14.01,2013-09-06 14:41:00,
2013-09-06 10:46:00,51.6,43.2,30.32,NW,315,0.0,0.0,73,0.00,,---,0.00,VWS V14.01,2013-09-06 14:46:00,
2013-09-06 10:51:00,52.5,43.0,30.32,NW,315,0.0,0.0,70,0.00,,---,0.00,VWS V14.01,2013-09-06 14:51:00,
2013-09-06 10:56:00,53.2,43.7,30.33,WNW,292,0.0,0.0,70,0.00,,---,0.00,VWS V14.01,2013-09-06 14:56:00,
2013-09-06 11:01:00,53.7,43.8,30.32,WNW,292,0.0,0.0,69,0.00,,---,0.19,VWS V14.01,2013-09-06 15:01:00,
2013-09-06 11:06:00,54.3,43.6,30.32,NW,315,0.0,0.0,67,0.00,,---,0.00,VWS V14.01,2013-09-06 15:06:00,
2013-09-06 11:11:00,54.8,43.7,30.32,NW,315,0.0,0.0,66,0.00,,---,0.00,VWS V14.01,2013-09-06 15:11:00,
2013-09-06 11:16:00,55.2,43.7,30.32,NW,315,0.0,1.1,65,0.00,,---,0.00,VWS V14.01,2013-09-06 15:16:00,
2013-09-06 11:21:00,55.7,44.1,30.32,SE,135,0.0,0.0,65,0.00,,---,0.00,VWS V14.01,2013-09-06 15:21:00,
2013-09-06 11:26:00,56.3,43.9,30.32,SE,135,0.0,0.0,63,0.00,,---,0.19,VWS V14.01,2013-09-06 15:26:00,
2013-09-06 11:31:00,56.8,43.9,30.32,NW,315,0.0,0.0,62,0.00,,---,0.00,VWS V14.01,2013-09-06 15:31:00,
2013-09-06 11:36:00,57.5,44.2,30.32,NE,45,0.0,0.0,61,0.00,,---,0.19,VWS V14.01,2013-09-06 15:36:00,
2013-09-06 11:41:00,57.9,44.1,30.32,NNW,338,0.0,0.0,60,0.00,,---,0.19,VWS V14.01,2013-09-06 15:41:00,
2013-09-06 11:46:00,58.6,45.2,30.32,NNW,338,0.0,0.0,61,0.00,,---,0.00,VWS V14.01,2013-09-06 15:46:00,
2013-09-06 11:51:00,58.8,44.5,30.31,NNW,338,0.0,0.0,59,0.00,,---,0.00,VWS V14.01,2013-09-06 15:51:00,
2013-09-06 11:56:00,59.1,44.3,30.31,NNW,338,0.0,0.0,58,0.00,,---,0.00,VWS V14.01,2013-09-06 15:56:00,
2013-09-06 12:01:00,60.0,44.7,30.31,NW,315,0.0,0.0,57,0.00,,---,0.00,VWS V14.01,2013-09-06 16:01:00,
2013-09-06 12:06:00,60.4,45.1,30.31,NE,45,0.0,0.0,57,0.00,,---,0.00,VWS V14.01,2013-09-06 16:06:00,
2013-09-06 12:11:00,60.9,45.6,30.31,SE,135,0.0,0.0,57,0.00,,---,0.00,VWS V14.01,2013-09-06 16:11:00,
2013-09-06 12:16:00,61.5,45.7,30.30,SE,135,0.0,0.0,56,0.00,,---,0.00,VWS V14.01,2013-09-06 16:16:00,
2013-09-06 12:21:00,61.8,46.0,30.30,SE,135,0.0,0.0,56,0.00,,---,0.00,VWS V14.01,2013-09-06 16:21:00,
2013-09-06 12:26:00,62.4,45.5,30.30,WNW,292,0.0,0.0,54,0.00,,---,0.00,VWS V14.01,2013-09-06 16:26:00,
2013-09-06 12:31:00,62.4,45.5,30.30,East,90,0.0,0.0,54,0.00,,---,0.00,VWS V14.01,2013-09-06 16:31:00,
2013-09-06 12:36:00,63.1,46.2,30.30,ESE,112,0.0,0.0,54,0.00,,---,0.00,VWS V14.01,2013-09-06 16:36:00,
2013-09-06 12:41:00,63.5,46.1,30.30,North,0,0.0,0.0,53,0.00,,---,0.00,VWS V14.01,2013-09-06 16:41:00,
2013-09-06 12:46:00,63.8,46.4,30.30,NNE,22,0.0,0.0,53,0.00,,---,0.00,VWS V14.01,2013-09-06 16:46:00,
2013-09-06 12:51:00,64.2,45.7,30.30,ENE,68,0.0,0.0,51,0.00,,---,0.00,VWS V14.01,2013-09-06 16:51:00,
2013-09-06 12:56:00,64.7,46.7,30.29,NW,315,0.0,0.0,52,0.00,,---,0.00,VWS V14.01,2013-09-06 16:56:00,
2013-09-06 13:01:00,64.9,46.4,30.29,NW,315,0.0,0.0,51,0.00,,---,0.00,VWS V14.01,2013-09-06 17:01:00,
2013-09-06 13:06:00,65.1,46.0,30.29,NW,315,0.0,0.0,50,0.00,,---,0.00,VWS V14.01,2013-09-06 17:06:00,
2013-09-06 13:11:00,65.1,45.5,30.29,NNW,338,0.0,0.0,49,0.00,,---,0.00,VWS V14.01,2013-09-06 17:11:00,
2013-09-06 13:16:00,65.1,45.5,30.29,WSW,248,0.0,0.0,49,0.00,,---,0.00,VWS V14.01,2013-09-06 17:16:00,
2013-09-06 13:21:00,65.3,45.7,30.29,WSW,248,0.0,0.0,49,0.00,,---,0.00,VWS V14.01,2013-09-06 17:21:00,
2013-09-06 13:26:00,65.4,45.2,30.29,WSW,248,0.0,0.0,48,0.00,,---,0.00,VWS V14.01,2013-09-06 17:26:00,
2013-09-06 13:31:00,65.4,45.2,30.29,WSW,248,0.0,0.0,48,0.00,,---,0.00,VWS V14.01,2013-09-06 17:31:00,
2013-09-06 13:36:00,65.6,44.8,30.29,NW,315,0.0,0.0,47,0.00,,---,0.00,VWS V14.01,2013-09-06 17:36:00,
2013-09-06 13:41:00,65.8,45.6,30.29,WSW,248,0.0,0.0,48,0.00,,---,0.00,VWS V14.01,2013-09-06 17:41:00,
2013-09-06 13:46:00,66.0,45.8,30.28,WSW,248,0.0,0.0,48,0.00,,---,0.00,VWS V14.01,2013-09-06 17:46:00,
2013-09-06 13:51:00,66.0,45.2,30.28,WSW,248,0.0,0.0,47,0.00,,---,0.00,VWS V14.01,2013-09-06 17:51:00,
2013-09-06 13:56:00,66.0,45.2,30.28,WSW,248,0.0,0.0,47,0.00,,---,0.00,VWS V14.01,2013-09-06 17:56:00,
2013-09-06 14:01:00,66.0,44.7,30.28,WSW,248,0.0,0.0,46,0.00,,---,0.00,VWS V14.01,2013-09-06 18:01:00,
2013-09-06 14:06:00,66.2,45.4,30.28,WSW,248,0.0,0.0,47,0.00,,---,0.00,VWS V14.01,2013-09-06 18:06:00,
2013-09-06 14:11:00,66.3,45.5,30.28,WSW,248,0.0,0.0,47,0.00,,---,0.00,VWS V14.01,2013-09-06 18:11:00,
2013-09-06 14:16:00,66.7,45.3,30.27,WSW,248,0.0,0.0,46,0.00,,---,0.00,VWS V14.01,2013-09-06 18:16:00,
2013-09-06 14:21:00,66.9,44.9,30.27,WSW,248,0.0,0.0,45,0.00,,---,0.00,VWS V14.01,2013-09-06 18:21:00,
2013-09-06 14:26:00,66.9,44.3,30.27,WSW,248,0.0,0.0,44,0.00,,---,0.00,VWS V14.01,2013-09-06 18:26:00,
2013-09-06 14:31:00,66.9,44.3,30.27,WSW,248,0.0,0.0,44,0.00,,---,0.00,VWS V14.01,2013-09-06 18:31:00,
2013-09-06 14:36:00,66.9,44.9,30.26,WSW,248,0.0,0.0,45,0.00,,---,0.00,VWS V14.01,2013-09-06 18:36:00,
2013-09-06 14:41:00,67.2,45.2,30.26,WSW,248,0.0,0.0,45,0.00,,---,0.00,VWS V14.01,2013-09-06 18:41:00,
2013-09-06 14:46:00,67.6,44.9,30.26,WSW,248,0.0,0.0,44,0.00,,---,0.00,VWS V14.01,2013-09-06 18:46:00,
2013-09-06 14:51:00,67.8,45.1,30.26,WSW,248,0.0,0.0,44,0.00,,---,0.00,VWS V14.01,2013-09-06 18:51:00,
2013-09-06 14:56:00,68.0,45.9,30.25,WSW,248,0.0,0.0,45,0.00,,---,0.00,VWS V14.01,2013-09-06 18:56:00,
2013-09-06 15:01:00,68.1,44.8,30.25,WSW,248,0.0,0.0,43,0.00,,---,0.00,VWS V14.01,2013-09-06 19:01:00,
2013-09-06 15:06:00,68.3,45.6,30.25,WSW,248,0.0,0.0,44,0.00,,---,0.00,VWS V14.01,2013-09-06 19:06:00,
2013-09-06 15:11:00,68.5,45.1,30.25,WSW,248,0.0,0.0,43,0.00,,---,0.00,VWS V14.01,2013-09-06 19:11:00,
2013-09-06 15:16:00,68.7,45.3,30.25,WSW,248,0.0,0.0,43,0.00,,---,0.00,VWS V14.01,2013-09-06 19:16:00,
2013-09-06 15:21:00,68.7,45.3,30.25,WSW,248,0.0,0.0,43,0.00,,---,0.00,VWS V14.01,2013-09-06 19:21:00,
2013-09-06 15:26:00,68.9,45.5,30.25,WSW,248,0.0,0.0,43,0.00,,---,0.00,VWS V14.01,2013-09-06 19:26:00,
2013-09-06 15:31:00,69.0,45.0,30.25,WSW,248,0.0,0.0,42,0.00,,---,0.00,VWS V14.01,2013-09-06 19:31:00,
2013-09-06 15:36:00,69.0,45.0,30.25,WSW,248,0.0,0.0,42,0.00,,---,0.00,VWS V14.01,2013-09-06 19:36:00,
2013-09-06 15:41:00,69.2,45.8,30.25,WSW,248,0.0,0.0,43,0.00,,---,0.00,VWS V14.01,2013-09-06 19:41:00,
2013-09-06 15:46:00,69.4,45.3,30.24,WSW,248,0.0,0.0,42,0.00,,---,0.00,VWS V14.01,2013-09-06 19:46:00,
2013-09-06 15:51:00,69.6,44.9,30.25,WSW,248,0.0,0.0,41,0.00,,---,0.00,VWS V14.01,2013-09-06 19:51:00,
2013-09-06 15:56:00,69.6,45.5,30.24,WSW,248,0.0,0.0,42,0.00,,---,0.00,VWS V14.01,2013-09-06 19:56:00,
2013-09-06 16:01:00,69.8,45.7,30.23,WSW,248,0.0,0.0,42,0.00,,---,0.19,VWS V14.01,2013-09-06 20:01:00,
2013-09-06 16:06:00,69.8,45.1,30.24,WSW,248,0.0,0.0,41,0.00,,---,0.00,VWS V14.01,2013-09-06 20:06:00,
2013-09-06 16:11:00,69.8,45.1,30.24,WSW,248,0.0,0.0,41,0.00,,---,0.00,VWS V14.01,2013-09-06 20:11:00,
2013-09-06 16:16:00,69.6,44.9,30.23,NW,315,3.5,4.0,41,0.00,,---,0.00,VWS V14.01,2013-09-06 20:16:00,
2013-09-06 16:21:00,69.6,44.9,30.23,WNW,292,0.0,0.0,41,0.00,,---,0.00,VWS V14.01,2013-09-06 20:21:00,
2013-09-06 16:26:00,69.6,44.9,30.23,NW,315,0.0,0.0,41,0.00,,---,0.00,VWS V14.01,2013-09-06 20:26:00,
2013-09-06 16:31:00,69.6,44.9,30.23,NW,315,0.0,0.0,41,0.00,,---,0.00,VWS V14.01,2013-09-06 20:31:00,
2013-09-06 16:36:00,69.6,44.2,30.23,West,270,0.0,0.0,40,0.00,,---,0.00,VWS V14.01,2013-09-06 20:36:00,
2013-09-06 16:41:00,69.4,44.1,30.23,North,0,0.0,0.0,40,0.00,,---,0.00,VWS V14.01,2013-09-06 20:41:00,
2013-09-06 16:46:00,69.4,44.7,30.23,NW,315,0.0,0.0,41,0.00,,---,0.19,VWS V14.01,2013-09-06 20:46:00,
2013-09-06 16:51:00,69.6,45.5,30.23,NW,315,0.0,0.0,42,0.00,,---,0.00,VWS V14.01,2013-09-06 20:51:00,
2013-09-06 16:56:00,69.6,45.5,30.23,NNW,338,0.0,0.0,42,0.00,,---,0.00,VWS V14.01,2013-09-06 20:56:00,
2013-09-06 17:01:00,69.6,45.5,30.22,NW,315,3.5,3.5,42,0.00,,---,0.19,VWS V14.01,2013-09-06 21:01:00,
2013-09-06 17:06:00,69.6,44.9,30.22,NW,315,0.0,0.0,41,0.00,,---,0.00,VWS V14.01,2013-09-06 21:06:00,
2013-09-06 17:11:00,69.6,45.5,30.22,North,0,0.0,0.0,42,0.00,,---,0.00,VWS V14.01,2013-09-06 21:11:00,
2013-09-06 17:16:00,69.4,45.3,30.22,NNW,338,0.0,0.0,42,0.00,,---,0.00,VWS V14.01,2013-09-06 21:16:00,
2013-09-06 17:21:00,69.4,45.3,30.22,NW,315,0.0,0.0,42,0.00,,---,0.00,VWS V14.01,2013-09-06 21:21:00,
2013-09-06 17:26:00,69.0,45.6,30.22,NW,315,0.0,0.0,43,0.00,,---,0.00,VWS V14.01,2013-09-06 21:26:00,
2013-09-06 17:31:00,69.0,45.6,30.22,NW,315,0.0,0.0,43,0.00,,---,0.00,VWS V14.01,2013-09-06 21:31:00,
2013-09-06 17:36:00,68.9,45.5,30.21,NW,315,0.0,0.0,43,0.00,,---,0.00,VWS V14.01,2013-09-06 21:36:00,
2013-09-06 17:41:00,68.9,45.5,30.22,NW,315,0.0,0.0,43,0.00,,---,0.00,VWS V14.01,2013-09-06 21:41:00,
2013-09-06 17:46:00,68.7,45.3,30.22,NNW,338,0.0,0.0,43,0.00,,---,0.00,VWS V14.01,2013-09-06 21:46:00,
2013-09-06 17:51:00,68.3,45.0,30.22,NW,315,0.0,0.0,43,0.00,,---,0.00,VWS V14.01,2013-09-06 21:51:00,
2013-09-06 17:56:00,68.1,44.8,30.22,WNW,292,0.0,0.0,43,0.00,,---,0.00,VWS V14.01,2013-09-06 21:56:00,
2013-09-06 18:01:00,67.8,44.5,30.22,NW,315,0.0,0.0,43,0.00,,---,0.00,VWS V14.01,2013-09-06 22:01:00,
2013-09-06 18:06:00,67.8,44.5,30.21,WNW,292,0.0,0.0,43,0.00,,---,0.00,VWS V14.01,2013-09-06 22:06:00,
2013-09-06 18:11:00,67.4,44.8,30.21,NW,315,0.0,0.0,44,0.00,,---,0.00,VWS V14.01,2013-09-06 22:11:00,
2013-09-06 18:16:00,67.2,44.6,30.21,NW,315,0.8,0.8,44,0.00,,---,0.00,VWS V14.01,2013-09-06 22:16:00,
2013-09-06 18:21:00,67.1,45.1,30.21,NW,315,0.0,0.0,45,0.00,,---,0.00,VWS V14.01,2013-09-06 22:21:00,
2013-09-06 18:26:00,66.7,44.7,30.21,NE,45,0.0,0.0,45,0.00,,---,0.00,VWS V14.01,2013-09-06 22:26:00,
2013-09-06 18:31:00,66.7,44.7,30.21,NW,315,0.0,0.0,45,0.00,,---,0.00,VWS V14.01,2013-09-06 22:31:00,
2013-09-06 18:36:00,66.3,44.9,30.21,NW,315,0.0,0.0,46,0.00,,---,0.00,VWS V14.01,2013-09-06 22:36:00,
2013-09-06 18:41:00,66.2,44.8,30.21,NW,315,0.0,0.0,46,0.00,,---,0.00,VWS V14.01,2013-09-06 22:41:00,
2013-09-06 18:46:00,66.0,44.7,30.21,NW,315,0.0,0.0,46,0.00,,---,0.00,VWS V14.01,2013-09-06 22:46:00,
2013-09-06 18:51:00,65.4,44.7,30.21,WNW,292,0.0,0.0,47,0.00,,---,0.00,VWS V14.01,2013-09-06 22:51:00,
2013-09-06 18:56:00,65.3,45.1,30.21,NNW,338,0.0,0.0,48,0.00,,---,0.00,VWS V14.01,2013-09-06 22:56:00,
2013-09-06 19:01:00,65.1,44.9,30.21,NNW,338,0.0,0.0,48,0.00,,---,0.19,VWS V14.01,2013-09-06 23:01:00,
2013-09-06 19:06:00,64.7,45.1,30.21,NNW,338,0.0,0.0,49,0.00,,---,0.00,VWS V14.01,2013-09-06 23:06:00,
2013-09-06 19:11:00,64.5,45.5,30.20,NNW,338,0.0,0.0,50,0.00,,---,0.00,VWS V14.01,2013-09-06 23:11:00,
2013-09-06 19:16:00,64.0,45.5,30.20,NW,315,1.1,1.1,51,0.00,,---,0.00,VWS V14.01,2013-09-06 23:16:00,
2013-09-06 19:21:00,63.6,45.2,30.20,NW,315,0.0,0.0,51,0.00,,---,0.00,VWS V14.01,2013-09-06 23:21:00,
2013-09-06 19:26:00,63.5,45.6,30.20,NW,315,0.0,0.0,52,0.00,,---,0.00,VWS V14.01,2013-09-06 23:26:00,
2013-09-06 19:31:00,63.1,45.7,30.20,NW,315,0.0,0.0,53,0.00,,---,0.00,VWS V14.01,2013-09-06 23:31:00,
2013-09-06 19:36:00,62.7,45.3,30.20,NW,315,0.0,0.0,53,0.00,,---,0.00,VWS V14.01,2013-09-06 23:36:00,
2013-09-06 19:41:00,62.4,45.1,30.20,WNW,292,0.0,0.0,53,0.00,,---,0.00,VWS V14.01,2013-09-06 23:41:00,
2013-09-06 19:46:00,62.2,45.4,30.21,NNW,338,0.0,0.0,54,0.00,,---,0.00,VWS V14.01,2013-09-06 23:46:00,
2013-09-06 19:51:00,61.5,45.2,30.21,NW,315,0.0,0.0,55,0.00,,---,0.00,VWS V14.01,2013-09-06 23:51:00,
2013-09-06 19:56:00,61.1,44.8,30.21,NW,315,0.0,0.0,55,0.00,,---,0.00,VWS V14.01,2013-09-06 23:56:00,
2013-09-06 20:01:00,60.9,45.1,30.21,NW,315,0.0,0.0,56,0.00,,---,0.00,VWS V14.01,2013-09-07 00:01:00,
2013-09-06 20:06:00,60.6,44.8,30.21,NNW,338,0.0,0.0,56,0.00,,---,0.00,VWS V14.01,2013-09-07 00:06:00,
2013-09-06 20:11:00,60.6,45.3,30.21,NNW,338,0.0,0.0,57,0.00,,---,0.00,VWS V14.01,2013-09-07 00:11:00,
2013-09-06 20:16:00,60.2,44.9,30.21,NNW,338,0.0,0.0,57,0.00,,---,0.00,VWS V14.01,2013-09-07 00:16:00,
2013-09-06 20:21:00,60.0,45.2,30.21,WNW,292,0.0,0.0,58,0.00,,---,0.00,VWS V14.01,2013-09-07 00:21:00,
2013-09-06 20:26:00,59.7,44.9,30.21,NW,315,0.0,0.0,58,0.00,,---,0.00,VWS V14.01,2013-09-07 00:26:00,
2013-09-06 20:31:00,59.5,44.7,30.21,North,0,0.0,0.0,58,0.00,,---,0.00,VWS V14.01,2013-09-07 00:31:00,
2013-09-06 20:36:00,59.1,44.3,30.21,NNW,338,0.0,0.0,58,0.00,,---,0.00,VWS V14.01,2013-09-07 00:36:00,
2013-09-06 20:41:00,58.8,44.1,30.21,NW,315,0.0,0.0,58,0.00,,---,0.00,VWS V14.01,2013-09-07 00:41:00,
2013-09-06 20:46:00,58.8,44.1,30.21,NNW,338,0.0,0.0,58,0.00,,---,0.00,VWS V14.01,2013-09-07 00:46:00,
2013-09-06 20:51:00,58.6,44.3,30.22,NNW,338,0.0,0.0,59,0.00,,---,0.00,VWS V14.01,2013-09-07 00:51:00,
2013-09-06 20:56:00,58.2,44.0,30.22,NW,315,0.0,0.0,59,0.00,,---,0.00,VWS V14.01,2013-09-07 00:56:00,
2013-09-06 21:01:00,58.1,44.3,30.22,NNW,338,0.0,0.0,60,0.00,,---,0.00,VWS V14.01,2013-09-07 01:01:00,
2013-09-06 21:06:00,57.9,44.1,30.22,NNW,338,0.0,0.0,60,0.00,,---,0.00,VWS V14.01,2013-09-07 01:06:00,
2013-09-06 21:11:00,57.9,44.1,30.22,NNW,338,0.0,0.0,60,0.00,,---,0.00,VWS V14.01,2013-09-07 01:11:00,
2013-09-06 21:16:00,57.7,43.9,30.21,NNW,338,0.0,0.0,60,0.00,,---,0.00,VWS V14.01,2013-09-07 01:16:00,
2013-09-06 21:21:00,57.7,44.4,30.21,NW,315,0.0,0.0,61,0.00,,---,0.00,VWS V14.01,2013-09-07 01:21:00,
2013-09-06 21:26:00,57.5,44.2,30.21,NW,315,0.0,0.0,61,0.00,,---,0.00,VWS V14.01,2013-09-07 01:26:00,
2013-09-06 21:31:00,57.3,44.0,30.21,NNW,338,0.0,0.0,61,0.00,,---,0.00,VWS V14.01,2013-09-07 01:31:00,
2013-09-06 21:36:00,57.3,44.4,30.21,NW,315,0.0,0.0,62,0.00,,---,0.00,VWS V14.01,2013-09-07 01:36:00,
2013-09-06 21:41:00,57.0,44.1,30.21,NW,315,0.0,0.0,62,0.00,,---,0.00,VWS V14.01,2013-09-07 01:41:00,
2013-09-06 21:46:00,57.0,44.1,30.21,NW,315,0.0,0.0,62,0.00,,---,0.00,VWS V14.01,2013-09-07 01:46:00,
2013-09-06 21:51:00,57.0,44.5,30.21,NW,315,0.0,0.0,63,0.00,,---,0.00,VWS V14.01,2013-09-07 01:51:00,
2013-09-06 21:56:00,56.8,44.3,30.21,NW,315,0.0,0.0,63,0.00,,---,0.00,VWS V14.01,2013-09-07 01:56:00,
2013-09-06 22:00:00,56.4,44.4,30.21,NW,315,0.0,0.0,64,0.00,,---,0.00,VWS V14.01,2013-09-07 02:00:00,
2013-09-06 22:05:00,56.4,44.4,30.21,NW,315,0.0,0.0,64,0.00,,---,0.00,VWS V14.01,2013-09-07 02:05:00,
2013-09-06 22:10:00,56.3,44.3,30.21,SE,135,0.0,0.0,64,0.00,,---,0.00,VWS V14.01,2013-09-07 02:10:00,
2013-09-06 22:15:00,56.1,44.5,30.21,SE,135,0.0,0.0,65,0.00,,---,0.00,VWS V14.01,2013-09-07 02:15:00,
2013-09-06 22:20:00,55.9,44.3,30.21,SE,135,0.0,0.0,65,0.00,,---,0.00,VWS V14.01,2013-09-07 02:20:00,
2013-09-06 22:25:00,55.9,44.3,30.21,SE,135,0.0,0.0,65,0.00,,---,0.00,VWS V14.01,2013-09-07 02:25:00,
2013-09-06 22:30:00,55.9,44.7,30.21,SSW,202,0.0,0.0,66,0.00,,---,0.00,VWS V14.01,2013-09-07 02:30:00,
2013-09-06 22:35:00,55.7,44.5,30.21,WSW,248,0.0,0.0,66,0.00,,---,0.00,VWS V14.01,2013-09-07 02:35:00,
2013-09-06 22:40:00,55.4,44.2,30.20,NNW,338,0.0,0.0,66,0.00,,---,0.00,VWS V14.01,2013-09-07 02:40:00,
2013-09-06 22:45:00,55.2,44.5,30.21,WNW,292,0.0,0.0,67,0.00,,---,0.00,VWS V14.01,2013-09-07 02:45:00,
2013-09-06 22:50:00,55.0,44.3,30.20,NNW,338,0.0,0.0,67,0.00,,---,0.00,VWS V14.01,2013-09-07 02:50:00,
2013-09-06 22:55:00,54.8,44.1,30.20,NW,315,1.7,1.7,67,0.00,,---,0.00,VWS V14.01,2013-09-07 02:55:00,
2013-09-06 23:00:00,54.6,43.9,30.20,NW,315,0.0,0.0,67,0.00,,---,0.00,VWS V14.01,2013-09-07 03:00:00,
2013-09-06 23:05:00,54.6,44.3,30.20,NW,315,0.0,0.0,68,0.00,,---,0.00,VWS V14.01,2013-09-07 03:05:00,
2013-09-06 23:10:00,54.5,44.2,30.20,NNW,338,0.0,0.0,68,0.00,,---,0.00,VWS V14.01,2013-09-07 03:10:00,
2013-09-06 23:15:00,54.5,44.2,30.20,East,90,0.0,0.0,68,0.00,,---,0.00,VWS V14.01,2013-09-07 03:15:00,
2013-09-06 23:20:00,54.3,44.0,30.20,NE,45,0.0,0.0,68,0.00,,---,0.00,VWS V14.01,2013-09-07 03:20:00,
2013-09-06 23:25:00,54.3,44.4,30.20,WNW,292,0.0,0.0,69,0.00,,---,0.00,VWS V14.01,2013-09-07 03:25:00,
2013-09-06 23:30:00,54.3,44.4,30.20,North,0,0.0,0.0,69,0.00,,---,0.00,VWS V14.01,2013-09-07 03:30:00,
2013-09-06 23:35:00,54.1,44.2,30.19,NW,315,0.0,0.0,69,0.00,,---,0.00,VWS V14.01,2013-09-07 03:35:00,
2013-09-06 23:40:00,54.1,44.2,30.19,NW,315,0.0,0.0,69,0.00,,---,0.00,VWS V14.01,2013-09-07 03:40:00,
2013-09-06 23:45:00,54.1,44.2,30.19,NW,315,0.0,0.0,69,0.00,,---,0.00,VWS V14.01,2013-09-07 03:45:00,
2013-09-06 23:50:00,54.1,44.5,30.19,East,90,0.0,0.0,70,0.00,,---,0.00,VWS V14.01,2013-09-07 03:50:00,
2013-09-06 23:55:00,53.9,44.3,30.18,ENE,68,0.0,0.0,70,0.00,,---,0.00,VWS V14.01,2013-09-07 03:55:00,